createdAt,value
2023-05-09T00:00:01.066Z,9.9
2023-05-09T00:01:04.040Z,9.9
2023-05-09T00:02:01.134Z,9.9
2023-05-09T00:03:01.219Z,9.9
2023-05-09T00:04:01.077Z,9.9
2023-05-09T00:05:01.075Z,9.9
2023-05-09T00:06:06.071Z,9.9
2023-05-09T00:07:01.661Z,9.9
2023-05-09T00:08:01.115Z,9.9
2023-05-09T00:09:01.114Z,9.9
2023-05-09T00:10:00.792Z,9.9
2023-05-09T00:11:08.178Z,9.8
2023-05-09T00:12:01.542Z,9.8
2023-05-09T00:13:01.187Z,9.9
2023-05-09T00:14:01.218Z,9.8
2023-05-09T00:15:01.596Z,9.8
2023-05-09T00:16:10.572Z,9.8
2023-05-09T00:17:01.434Z,9.8
2023-05-09T00:18:02.145Z,9.8
2023-05-09T00:19:01.379Z,9.8
2023-05-09T00:20:01.871Z,9.8
2023-05-09T00:21:13.952Z,9.8
2023-05-09T00:22:01.109Z,9.8
2023-05-09T00:23:01.234Z,9.8
2023-05-09T00:24:01.735Z,9.8
2023-05-09T00:25:01.095Z,9.7
2023-05-09T00:26:16.378Z,9.8
2023-05-09T00:27:01.616Z,9.7
2023-05-09T00:28:01.019Z,9.7
2023-05-09T00:29:01.027Z,9.7
2023-05-09T00:30:01.128Z,9.7
2023-05-09T00:31:01.101Z,9.7
2023-05-09T00:32:03.015Z,9.7
2023-05-09T00:33:02.196Z,9.6
2023-05-09T00:34:01.564Z,9.6
2023-05-09T00:35:01.419Z,9.6
2023-05-09T00:36:02.074Z,9.6
2023-05-09T00:37:01.074Z,9.6
2023-05-09T00:38:01.477Z,9.6
2023-05-09T00:39:01.088Z,9.6
2023-05-09T00:40:01.112Z,9.6
2023-05-09T00:41:01.091Z,9.6
2023-05-09T00:42:01.099Z,9.6
2023-05-09T00:43:01.418Z,9.5
2023-05-09T00:44:01.512Z,9.5
2023-05-09T00:45:01.028Z,9.5
2023-05-09T00:46:01.095Z,9.5
2023-05-09T00:47:01.028Z,9.5
2023-05-09T00:48:01.132Z,9.5
2023-05-09T00:49:01.052Z,9.5
2023-05-09T00:50:01.100Z,9.5
2023-05-09T00:51:01.095Z,9.5
2023-05-09T00:52:01.451Z,9.4
2023-05-09T00:53:01.177Z,9.4
2023-05-09T00:54:01.091Z,9.4
2023-05-09T00:55:01.051Z,9.4
2023-05-09T00:56:01.221Z,9.3
2023-05-09T00:57:01.134Z,9.4
2023-05-09T00:58:01.090Z,9.3
2023-05-09T00:59:01.521Z,9.3
2023-05-09T01:00:01.224Z,9.3
2023-05-09T01:01:02.662Z,9.3
2023-05-09T01:02:01.124Z,9.3
2023-05-09T01:03:01.122Z,9.3
2023-05-09T01:04:01.140Z,9.3
2023-05-09T01:05:01.172Z,9.3
2023-05-09T01:06:01.430Z,9.3
2023-05-09T01:07:01.068Z,9.3
2023-05-09T01:08:01.289Z,9.3
2023-05-09T01:09:01.068Z,9.3
2023-05-09T01:10:01.016Z,9.3
2023-05-09T01:11:01.095Z,9.3
2023-05-09T01:12:01.101Z,9.3
2023-05-09T01:13:01.184Z,9.3
2023-05-09T01:14:01.464Z,9.3
2023-05-09T01:15:02.297Z,9.2
2023-05-09T01:16:01.230Z,9.2
2023-05-09T01:17:01.149Z,9.2
2023-05-09T01:18:01.071Z,9.2
2023-05-09T01:19:02.517Z,9.2
2023-05-09T01:20:01.064Z,9.1
2023-05-09T01:21:01.050Z,9.1
2023-05-09T01:22:01.452Z,9.1
2023-05-09T01:23:01.066Z,9.1
2023-05-09T01:24:00.779Z,9.1
2023-05-09T01:25:01.080Z,9.1
2023-05-09T01:26:01.352Z,9
2023-05-09T01:27:01.128Z,9.1
2023-05-09T01:28:02.463Z,9
2023-05-09T01:29:01.485Z,9
2023-05-09T01:30:01.398Z,9
2023-05-09T01:31:02.566Z,9
2023-05-09T01:32:01.116Z,9
2023-05-09T01:33:01.195Z,9
2023-05-09T01:34:01.965Z,9
2023-05-09T01:35:01.029Z,9
2023-05-09T01:36:01.384Z,9
2023-05-09T01:37:01.058Z,9
2023-05-09T01:38:01.464Z,9
2023-05-09T01:39:01.474Z,9
2023-05-09T01:40:01.078Z,9
2023-05-09T01:41:01.060Z,8.9
2023-05-09T01:42:03.410Z,8.9
2023-05-09T01:43:01.081Z,8.9
2023-05-09T01:44:01.155Z,8.8
2023-05-09T01:45:01.123Z,8.8
2023-05-09T01:46:01.123Z,8.8
2023-05-09T01:47:05.899Z,8.8
2023-05-09T01:48:01.566Z,8.8
2023-05-09T01:49:01.244Z,8.8
2023-05-09T01:50:01.878Z,8.8
2023-05-09T01:51:02.178Z,8.8
2023-05-09T01:52:08.419Z,8.8
2023-05-09T01:53:02.161Z,8.7
2023-05-09T01:54:01.752Z,8.7
2023-05-09T01:55:01.100Z,8.7
2023-05-09T01:56:01.190Z,8.7
2023-05-09T01:57:10.777Z,8.7
2023-05-09T01:58:01.479Z,8.7
2023-05-09T01:59:01.088Z,8.6
2023-05-09T02:00:01.100Z,8.6
2023-05-09T02:01:01.127Z,8.6
2023-05-09T02:02:13.468Z,8.6
2023-05-09T02:03:02.406Z,8.6
2023-05-09T02:04:01.125Z,8.6
2023-05-09T02:05:01.258Z,8.6
2023-05-09T02:06:01.044Z,8.6
2023-05-09T02:07:16.234Z,8.6
2023-05-09T02:08:01.455Z,8.6
2023-05-09T02:09:01.046Z,8.5
2023-05-09T02:10:01.052Z,8.5
2023-05-09T02:11:01.015Z,8.5
2023-05-09T02:12:01.039Z,8.5
2023-05-09T02:13:01.092Z,8.4
2023-05-09T02:14:01.918Z,8.3
2023-05-09T02:15:00.874Z,8.3
2023-05-09T02:16:01.100Z,8.3
2023-05-09T02:17:01.149Z,8.3
2023-05-09T02:18:01.542Z,8.3
2023-05-09T02:19:01.123Z,8.3
2023-05-09T02:20:01.109Z,8.3
2023-05-09T02:21:01.128Z,8.3
2023-05-09T02:22:00.516Z,8.3
2023-05-09T02:23:00.132Z,8.3
2023-05-09T02:24:00.080Z,8.3
2023-05-09T02:24:59.937Z,8.3
2023-05-09T02:25:59.621Z,8.3
2023-05-09T02:27:01.613Z,8.2
2023-05-09T02:28:01.260Z,8.1
2023-05-09T02:29:01.024Z,8.2
2023-05-09T02:30:01.103Z,8.2
2023-05-09T02:31:01.081Z,8.1
2023-05-09T02:32:01.217Z,8.1
2023-05-09T02:33:01.820Z,8.1
2023-05-09T02:34:01.305Z,8.1
2023-05-09T02:35:02.015Z,8.1
2023-05-09T02:36:01.105Z,8.1
2023-05-09T02:37:01.133Z,8.1
2023-05-09T02:38:01.130Z,8
2023-05-09T02:39:01.032Z,8
2023-05-09T02:40:01.057Z,8
2023-05-09T02:41:01.438Z,8
2023-05-09T02:42:01.167Z,8
2023-05-09T02:43:01.040Z,8
2023-05-09T02:44:01.236Z,8
2023-05-09T02:45:01.361Z,8
2023-05-09T02:46:02.099Z,8
2023-05-09T02:47:01.151Z,8
2023-05-09T02:48:01.543Z,8
2023-05-09T02:49:01.097Z,8
2023-05-09T02:50:01.096Z,8
2023-05-09T02:51:01.114Z,8
2023-05-09T02:52:01.116Z,8
2023-05-09T02:53:01.177Z,8
2023-05-09T02:54:01.423Z,8
2023-05-09T02:55:00.925Z,8
2023-05-09T02:56:01.037Z,8
2023-05-09T02:57:01.036Z,8
2023-05-09T02:58:12.744Z,7.9
2023-05-09T02:59:01.000Z,8
2023-05-09T03:00:01.470Z,8
2023-05-09T03:01:01.171Z,8
2023-05-09T03:02:01.063Z,8
2023-05-09T03:03:01.243Z,8
2023-05-09T03:04:01.127Z,8
2023-05-09T03:05:01.113Z,8
2023-05-09T03:06:01.251Z,7.9
2023-05-09T03:07:01.275Z,7.9
2023-05-09T03:08:01.843Z,7.9
2023-05-09T03:09:00.882Z,7.9
2023-05-09T03:10:01.140Z,7.9
2023-05-09T03:11:01.032Z,7.9
2023-05-09T03:12:01.447Z,7.9
2023-05-09T03:13:01.285Z,7.9
2023-05-09T03:14:02.022Z,7.9
2023-05-09T03:15:01.035Z,7.8
2023-05-09T03:16:01.115Z,7.8
2023-05-09T03:17:01.068Z,7.8
2023-05-09T03:18:01.205Z,7.7
2023-05-09T03:19:01.582Z,7.7
2023-05-09T03:20:04.127Z,7.6
2023-05-09T03:21:02.151Z,7.6
2023-05-09T03:22:01.107Z,7.6
2023-05-09T03:23:01.417Z,7.6
2023-05-09T03:24:01.143Z,7.6
2023-05-09T03:25:01.130Z,7.6
2023-05-09T03:26:01.144Z,7.6
2023-05-09T03:27:01.048Z,7.6
2023-05-09T03:28:01.437Z,7.6
2023-05-09T03:29:01.406Z,7.6
2023-05-09T03:30:02.500Z,7.6
2023-05-09T03:31:02.649Z,7.6
2023-05-09T03:32:01.075Z,7.5
2023-05-09T03:33:03.420Z,7.5
2023-05-09T03:34:01.466Z,7.5
2023-05-09T03:35:01.048Z,7.5
2023-05-09T03:36:01.227Z,7.5
2023-05-09T03:37:01.103Z,7.5
2023-05-09T03:38:06.623Z,7.5
2023-05-09T03:39:01.205Z,7.5
2023-05-09T03:40:01.128Z,7.5
2023-05-09T03:41:01.121Z,7.5
2023-05-09T03:42:01.127Z,7.5
2023-05-09T03:43:08.479Z,7.5
2023-05-09T03:44:01.042Z,7.5
2023-05-09T03:45:01.086Z,7.5
2023-05-09T03:46:01.032Z,7.5
2023-05-09T03:47:01.141Z,7.5
2023-05-09T03:48:11.650Z,7.5
2023-05-09T03:49:01.072Z,7.5
2023-05-09T03:50:01.077Z,7.5
2023-05-09T03:51:01.689Z,7.5
2023-05-09T03:52:01.834Z,7.5
2023-05-09T03:53:14.039Z,7.5
2023-05-09T03:54:01.110Z,7.5
2023-05-09T03:55:01.273Z,7.5
2023-05-09T03:56:01.625Z,7.5
2023-05-09T03:57:01.144Z,7.5
2023-05-09T03:58:16.962Z,7.5
2023-05-09T03:59:00.810Z,7.5
2023-05-09T04:00:00.402Z,7.5
2023-05-09T04:01:00.182Z,7.6
2023-05-09T04:01:59.866Z,7.6
2023-05-09T04:02:59.529Z,7.6
2023-05-09T04:04:01.821Z,7.6
2023-05-09T04:05:01.211Z,7.7
2023-05-09T04:06:04.017Z,7.8
2023-05-09T04:07:01.358Z,7.8
2023-05-09T04:08:01.469Z,7.8
2023-05-09T04:09:02.534Z,7.8
2023-05-09T04:10:01.154Z,7.9
2023-05-09T04:11:01.439Z,8
2023-05-09T04:12:02.455Z,8
2023-05-09T04:13:02.281Z,8
2023-05-09T04:14:01.380Z,8.1
2023-05-09T04:15:01.040Z,8.2
2023-05-09T04:16:01.141Z,8.3
2023-05-09T04:17:01.510Z,8.3
2023-05-09T04:18:01.102Z,8.4
2023-05-09T04:19:01.063Z,8.4
2023-05-09T04:20:01.102Z,8.4
2023-05-09T04:21:01.067Z,8.4
2023-05-09T04:22:01.071Z,8.4
2023-05-09T04:23:01.076Z,8.4
2023-05-09T04:24:01.417Z,8.4
2023-05-09T04:25:01.077Z,8.5
2023-05-09T04:26:01.096Z,8.5
2023-05-09T04:27:01.116Z,8.6
2023-05-09T04:28:01.121Z,8.5
2023-05-09T04:29:02.070Z,8.5
2023-05-09T04:30:01.144Z,8.5
2023-05-09T04:31:01.269Z,8.5
2023-05-09T04:32:01.902Z,8.6
2023-05-09T04:33:01.541Z,8.6
2023-05-09T04:34:01.709Z,8.7
2023-05-09T04:35:01.245Z,8.7
2023-05-09T04:36:01.457Z,8.8
2023-05-09T04:37:01.137Z,8.8
2023-05-09T04:38:01.818Z,8.8
2023-05-09T04:39:00.795Z,8.8
2023-05-09T04:40:00.603Z,8.8
2023-05-09T04:41:00.382Z,8.8
2023-05-09T04:42:00.064Z,8.8
2023-05-09T04:42:59.777Z,8.8
2023-05-09T04:44:01.423Z,8.9
2023-05-09T04:45:01.316Z,9
2023-05-09T04:46:02.632Z,9
2023-05-09T04:47:02.452Z,9.1
2023-05-09T04:48:01.445Z,9.1
2023-05-09T04:49:01.127Z,9.1
2023-05-09T04:50:01.524Z,9.1
2023-05-09T04:51:01.739Z,9.1
2023-05-09T04:52:02.432Z,9.2
2023-05-09T04:53:02.124Z,9.3
2023-05-09T04:54:00.994Z,9.2
2023-05-09T04:55:01.273Z,9.3
2023-05-09T04:56:00.689Z,9.3
2023-05-09T04:57:10.214Z,9.3
2023-05-09T04:58:02.415Z,9.3
2023-05-09T04:59:01.828Z,9.3
2023-05-09T05:00:00.973Z,9.3
2023-05-09T05:01:01.650Z,9.4
2023-05-09T05:02:04.106Z,9.4
2023-05-09T05:03:01.047Z,9.5
2023-05-09T05:04:01.034Z,9.5
2023-05-09T05:05:10.821Z,9.5
2023-05-09T05:06:01.453Z,9.5
2023-05-09T05:07:01.172Z,9.5
2023-05-09T05:08:01.808Z,9.6
2023-05-09T05:09:02.440Z,9.7
2023-05-09T05:10:01.145Z,9.8
2023-05-09T05:11:04.048Z,9.9
2023-05-09T05:12:03.699Z,10
2023-05-09T05:13:01.178Z,10.1
2023-05-09T05:14:00.916Z,10.3
2023-05-09T05:15:00.529Z,10.5
2023-05-09T05:16:01.080Z,10.6
2023-05-09T05:17:01.036Z,10.7
2023-05-09T05:18:01.542Z,10.9
2023-05-09T05:19:03.941Z,11
2023-05-09T05:20:02.554Z,11.1
2023-05-09T05:21:01.037Z,11.3
2023-05-09T05:22:01.307Z,11.5
2023-05-09T05:23:01.330Z,11.7
2023-05-09T05:24:06.880Z,11.8
2023-05-09T05:25:02.037Z,11.9
2023-05-09T05:26:01.363Z,12
2023-05-09T05:27:01.588Z,12.1
2023-05-09T05:28:01.137Z,12.2
2023-05-09T05:29:09.905Z,12.4
2023-05-09T05:30:01.520Z,12.6
2023-05-09T05:31:01.540Z,12.8
2023-05-09T05:32:02.163Z,13
2023-05-09T05:33:02.381Z,13.2
2023-05-09T05:34:13.524Z,13.1
2023-05-09T05:35:01.026Z,13
2023-05-09T05:36:01.060Z,12.9
2023-05-09T05:37:04.089Z,12.8
2023-05-09T05:38:04.513Z,12.8
2023-05-09T05:39:15.655Z,12.8
2023-05-09T05:40:02.184Z,13.1
2023-05-09T05:41:01.666Z,13.4
2023-05-09T05:42:01.290Z,13.7
2023-05-09T05:43:01.110Z,14.1
2023-05-09T05:44:01.119Z,14.4
2023-05-09T05:45:01.021Z,14.5
2023-05-09T05:46:01.165Z,14.5
2023-05-09T05:47:01.107Z,14.3
2023-05-09T05:48:01.225Z,14.2
2023-05-09T05:49:01.110Z,14.3
2023-05-09T05:50:01.514Z,14.6
2023-05-09T05:51:01.173Z,14.8
2023-05-09T05:52:01.024Z,15
2023-05-09T05:53:01.031Z,15.1
2023-05-09T05:54:00.426Z,14.9
2023-05-09T05:55:00.158Z,14.8
2023-05-09T05:55:59.901Z,14.5
2023-05-09T05:56:59.532Z,14.6
2023-05-09T05:58:01.398Z,14.6
2023-05-09T05:59:02.100Z,14.5
2023-05-09T06:00:02.150Z,14.5
2023-05-09T06:01:01.111Z,14.6
2023-05-09T06:02:01.217Z,14.6
2023-05-09T06:03:01.231Z,14.4
2023-05-09T06:04:03.937Z,14.4
2023-05-09T06:05:01.113Z,14.5
2023-05-09T06:06:01.197Z,14.5
2023-05-09T06:07:01.412Z,14.6
2023-05-09T06:08:02.158Z,14.7
2023-05-09T06:09:01.037Z,14.8
2023-05-09T06:10:00.726Z,15.1
2023-05-09T06:11:00.374Z,15
2023-05-09T06:12:00.038Z,14.9
2023-05-09T06:13:00.274Z,14.5
2023-05-09T06:14:00.031Z,14.4
2023-05-09T06:14:59.589Z,14.4
2023-05-09T06:16:15.205Z,14.3
2023-05-09T06:17:01.104Z,14.1
2023-05-09T06:18:01.136Z,14.2
2023-05-09T06:19:01.095Z,14.2
2023-05-09T06:20:01.115Z,14.1
2023-05-09T06:21:01.099Z,14.1
2023-05-09T06:22:00.748Z,14
2023-05-09T06:23:00.313Z,14
2023-05-09T06:24:09.936Z,13.8
2023-05-09T06:25:01.977Z,13.6
2023-05-09T06:26:01.186Z,13.3
2023-05-09T06:27:01.044Z,13.1
2023-05-09T06:28:01.050Z,12.9
2023-05-09T06:29:01.070Z,12.8
2023-05-09T06:30:04.160Z,12.6
2023-05-09T06:31:01.127Z,12.6
2023-05-09T06:32:01.111Z,12.6
2023-05-09T06:33:01.145Z,12.5
2023-05-09T06:34:01.327Z,12.5
2023-05-09T06:35:01.120Z,12.4
2023-05-09T06:36:01.596Z,12.4
2023-05-09T06:37:01.125Z,12.3
2023-05-09T06:38:01.038Z,12.3
2023-05-09T06:39:01.061Z,12.3
2023-05-09T06:40:01.028Z,12.3
2023-05-09T06:41:00.942Z,12.3
2023-05-09T06:42:00.483Z,12.3
2023-05-09T06:43:00.110Z,12.3
2023-05-09T06:43:59.827Z,12.3
2023-05-09T06:45:01.852Z,12.3
2023-05-09T06:46:01.104Z,12.3
2023-05-09T06:47:03.837Z,12.3
2023-05-09T06:48:01.152Z,12.3
2023-05-09T06:49:01.025Z,12.3
2023-05-09T06:50:01.082Z,12.3
2023-05-09T06:51:01.320Z,12.5
2023-05-09T06:52:00.831Z,12.5
2023-05-09T06:53:00.501Z,12.5
2023-05-09T06:54:00.137Z,12.5
2023-05-09T06:54:59.776Z,12.5
2023-05-09T06:56:02.802Z,12.4
2023-05-09T06:57:04.623Z,12.4
2023-05-09T06:58:01.730Z,12.4
2023-05-09T06:59:01.221Z,12.4
2023-05-09T07:00:01.191Z,12.5
2023-05-09T07:01:02.004Z,12.5
2023-05-09T07:02:01.254Z,12.5
2023-05-09T07:03:01.635Z,12.6
2023-05-09T07:04:01.304Z,12.6
2023-05-09T07:05:01.960Z,12.6
2023-05-09T07:06:01.098Z,12.6
2023-05-09T07:07:01.102Z,12.7
2023-05-09T07:08:01.141Z,12.7
2023-05-09T07:09:01.107Z,12.7
2023-05-09T07:10:11.208Z,12.8
2023-05-09T07:11:01.164Z,12.8
2023-05-09T07:12:01.445Z,12.7
2023-05-09T07:13:01.214Z,12.8
2023-05-09T07:14:01.019Z,12.8
2023-05-09T07:15:06.904Z,12.8
2023-05-09T07:16:01.110Z,12.8
2023-05-09T07:17:18.095Z,12.9
2023-05-09T07:18:01.828Z,13
2023-05-09T07:19:01.108Z,13
2023-05-09T07:20:10.532Z,13
2023-05-09T07:21:01.139Z,13
2023-05-09T07:22:01.483Z,13.1
2023-05-09T07:23:01.199Z,13
2023-05-09T07:24:01.110Z,13
2023-05-09T07:25:13.411Z,13
2023-05-09T07:26:01.346Z,13
2023-05-09T07:27:01.143Z,13
2023-05-09T07:28:01.448Z,13
2023-05-09T07:29:01.046Z,13
2023-05-09T07:30:16.557Z,13
2023-05-09T07:31:01.448Z,13.1
2023-05-09T07:32:01.155Z,13
2023-05-09T07:33:01.137Z,13.1
2023-05-09T07:34:01.772Z,13.1
2023-05-09T07:35:01.909Z,13.1
2023-05-09T07:36:01.394Z,13.2
2023-05-09T07:37:01.095Z,13.2
2023-05-09T07:38:01.091Z,13.2
2023-05-09T07:39:01.398Z,13.2
2023-05-09T07:40:01.118Z,13.2
2023-05-09T07:41:01.133Z,13.3
2023-05-09T07:42:01.133Z,13.3
2023-05-09T07:43:01.130Z,13.3
2023-05-09T07:44:01.136Z,13.3
2023-05-09T07:45:01.039Z,13.3
2023-05-09T07:46:01.067Z,13.3
2023-05-09T07:47:01.275Z,13.4
2023-05-09T07:48:01.504Z,13.4
2023-05-09T07:49:01.210Z,13.4
2023-05-09T07:50:01.073Z,13.4
2023-05-09T07:51:01.081Z,13.5
2023-05-09T07:52:01.083Z,13.5
2023-05-09T07:53:01.097Z,13.5
2023-05-09T07:54:01.110Z,13.5
2023-05-09T07:55:01.139Z,13.5
2023-05-09T07:56:02.541Z,13.5
2023-05-09T07:57:01.526Z,13.6
2023-05-09T07:58:01.151Z,13.6
2023-05-09T07:59:01.032Z,13.6
2023-05-09T08:00:01.039Z,13.6
2023-05-09T08:01:01.067Z,13.6
2023-05-09T08:02:01.130Z,13.7
2023-05-09T08:03:01.934Z,13.7
2023-05-09T08:04:01.264Z,13.8
2023-05-09T08:05:01.149Z,13.8
2023-05-09T08:06:01.077Z,13.8
2023-05-09T08:07:01.082Z,13.8
2023-05-09T08:08:01.086Z,13.8
2023-05-09T08:09:01.098Z,13.8
2023-05-09T08:10:01.198Z,13.8
2023-05-09T08:11:01.095Z,13.8
2023-05-09T08:12:01.481Z,13.8
2023-05-09T08:13:01.229Z,13.8
2023-05-09T08:14:01.137Z,13.8
2023-05-09T08:15:01.133Z,13.9
2023-05-09T08:16:01.522Z,13.9
2023-05-09T08:17:01.039Z,14
2023-05-09T08:18:01.109Z,14
2023-05-09T08:19:01.111Z,14
2023-05-09T08:20:01.120Z,14
2023-05-09T08:21:01.232Z,14
2023-05-09T08:22:01.385Z,14.1
2023-05-09T08:23:01.841Z,14.1
2023-05-09T08:24:03.159Z,14.1
2023-05-09T08:25:01.501Z,14.2
2023-05-09T08:26:01.170Z,14.2
2023-05-09T08:27:01.157Z,14.3
2023-05-09T08:28:01.119Z,14.2
2023-05-09T08:29:01.139Z,14.2
2023-05-09T08:30:01.216Z,14.3
2023-05-09T08:31:01.007Z,14.3
2023-05-09T08:32:01.525Z,14.3
2023-05-09T08:33:01.107Z,14.3
2023-05-09T08:34:01.030Z,14.3
2023-05-09T08:35:01.073Z,14.4
2023-05-09T08:36:00.751Z,14.4
2023-05-09T08:37:00.339Z,14.5
2023-05-09T08:37:59.941Z,14.5
2023-05-09T08:38:59.533Z,14.6
2023-05-09T08:40:02.273Z,14.6
2023-05-09T08:41:01.284Z,14.6
2023-05-09T08:42:04.544Z,14.6
2023-05-09T08:43:01.217Z,14.6
2023-05-09T08:44:01.134Z,14.6
2023-05-09T08:45:01.195Z,14.6
2023-05-09T08:46:01.173Z,14.7
2023-05-09T08:47:01.984Z,14.6
2023-05-09T08:48:02.556Z,14.6
2023-05-09T08:49:01.508Z,14.6
2023-05-09T08:50:01.136Z,14.6
2023-05-09T08:51:01.051Z,14.7
2023-05-09T08:52:01.667Z,14.8
2023-05-09T08:53:01.498Z,14.8
2023-05-09T08:54:01.446Z,14.8
2023-05-09T08:55:02.167Z,14.9
2023-05-09T08:56:01.800Z,14.8
2023-05-09T08:57:01.120Z,14.8
2023-05-09T08:58:01.108Z,14.8
2023-05-09T08:59:01.122Z,14.8
2023-05-09T09:00:01.122Z,14.8
2023-05-09T09:01:05.549Z,14.8
2023-05-09T09:02:01.364Z,14.8
2023-05-09T09:03:01.997Z,14.8
2023-05-09T09:04:01.053Z,14.8
2023-05-09T09:05:01.095Z,14.8
2023-05-09T09:06:08.162Z,14.8
2023-05-09T09:07:01.056Z,14.8
2023-05-09T09:08:01.069Z,14.8
2023-05-09T09:09:01.110Z,14.8
2023-05-09T09:10:00.787Z,14.9
2023-05-09T09:11:09.284Z,14.9
2023-05-09T09:12:01.478Z,14.9
2023-05-09T09:13:02.076Z,15
2023-05-09T09:14:01.088Z,15
2023-05-09T09:15:01.101Z,15.1
2023-05-09T09:16:11.434Z,15
2023-05-09T09:17:01.965Z,15
2023-05-09T09:18:01.089Z,15
2023-05-09T09:19:01.061Z,15
2023-05-09T09:20:01.070Z,15.1
2023-05-09T09:21:15.227Z,15.1
2023-05-09T09:22:01.507Z,15.1
2023-05-09T09:23:02.098Z,15.1
2023-05-09T09:24:01.894Z,15.1
2023-05-09T09:25:01.021Z,15.2
2023-05-09T09:26:01.194Z,15.3
2023-05-09T09:27:01.098Z,15.3
2023-05-09T09:28:01.391Z,15.3
2023-05-09T09:29:01.526Z,15.3
2023-05-09T09:30:01.485Z,15.2
2023-05-09T09:31:01.532Z,15.2
2023-05-09T09:32:01.239Z,15.1
2023-05-09T09:33:02.490Z,15.2
2023-05-09T09:34:01.130Z,15.3
2023-05-09T09:35:01.221Z,15.3
2023-05-09T09:36:00.820Z,15.4
2023-05-09T09:37:00.536Z,15.4
2023-05-09T09:38:00.439Z,15.4
2023-05-09T09:39:00.207Z,15.4
2023-05-09T09:39:59.829Z,15.5
2023-05-09T09:41:02.613Z,15.5
2023-05-09T09:42:01.218Z,15.5
2023-05-09T09:43:01.510Z,15.5
2023-05-09T09:44:01.205Z,15.6
2023-05-09T09:45:01.083Z,15.6
2023-05-09T09:46:01.166Z,15.6
2023-05-09T09:47:01.744Z,15.6
2023-05-09T09:48:01.178Z,15.6
2023-05-09T09:49:01.134Z,15.6
2023-05-09T09:50:01.137Z,15.6
2023-05-09T09:51:01.048Z,15.7
2023-05-09T09:52:01.422Z,15.7
2023-05-09T09:53:01.052Z,15.7
2023-05-09T09:54:01.106Z,15.7
2023-05-09T09:55:01.067Z,15.8
2023-05-09T09:56:00.773Z,15.8
2023-05-09T09:57:00.343Z,15.8
2023-05-09T09:57:59.938Z,15.8
2023-05-09T09:58:59.621Z,15.8
2023-05-09T10:00:01.818Z,15.8
2023-05-09T10:01:01.431Z,15.8
2023-05-09T10:02:05.822Z,15.7
2023-05-09T10:03:01.146Z,15.7
2023-05-09T10:04:01.159Z,15.7
2023-05-09T10:05:01.244Z,15.8
2023-05-09T10:06:01.045Z,15.8
2023-05-09T10:07:01.041Z,15.8
2023-05-09T10:08:01.043Z,15.8
2023-05-09T10:09:01.408Z,15.8
2023-05-09T10:10:01.430Z,15.8
2023-05-09T10:11:01.057Z,15.9
2023-05-09T10:12:01.090Z,15.9
2023-05-09T10:13:01.147Z,16
2023-05-09T10:14:01.091Z,16
2023-05-09T10:15:01.132Z,16.1
2023-05-09T10:16:01.615Z,16.1
2023-05-09T10:17:01.136Z,16.1
2023-05-09T10:18:02.305Z,16.1
2023-05-09T10:19:01.156Z,16.2
2023-05-09T10:20:01.039Z,16.3
2023-05-09T10:21:01.144Z,16.3
2023-05-09T10:22:01.190Z,16.3
2023-05-09T10:23:01.037Z,16.4
2023-05-09T10:24:01.047Z,16.5
2023-05-09T10:25:01.344Z,16.5
2023-05-09T10:26:01.363Z,16.5
2023-05-09T10:27:01.057Z,16.5
2023-05-09T10:28:01.071Z,16.5
2023-05-09T10:29:01.066Z,16.5
2023-05-09T10:30:01.021Z,16.4
2023-05-09T10:31:01.080Z,16.4
2023-05-09T10:32:01.095Z,16.4
2023-05-09T10:33:01.359Z,16.3
2023-05-09T10:34:01.437Z,16.4
2023-05-09T10:35:02.135Z,16.4
2023-05-09T10:36:01.267Z,16.5
2023-05-09T10:37:02.872Z,16.5
2023-05-09T10:38:01.706Z,16.5
2023-05-09T10:39:01.129Z,16.5
2023-05-09T10:40:01.031Z,16.5
2023-05-09T10:41:01.138Z,16.5
2023-05-09T10:42:06.226Z,16.5
2023-05-09T10:43:01.441Z,16.5
2023-05-09T10:44:01.170Z,16.5
2023-05-09T10:45:01.099Z,16.5
2023-05-09T10:46:01.073Z,16.5
2023-05-09T10:47:07.948Z,16.5
2023-05-09T10:48:01.917Z,16.5
2023-05-09T10:49:01.124Z,16.5
2023-05-09T10:50:01.105Z,16.5
2023-05-09T10:51:01.111Z,16.6
2023-05-09T10:52:10.803Z,16.6
2023-05-09T10:53:01.509Z,16.7
2023-05-09T10:54:01.170Z,16.6
2023-05-09T10:55:01.033Z,16.6
2023-05-09T10:56:00.732Z,16.6
2023-05-09T10:57:12.576Z,16.7
2023-05-09T10:58:04.595Z,16.7
2023-05-09T10:59:01.241Z,16.8
2023-05-09T11:00:01.909Z,16.8
2023-05-09T11:01:02.036Z,16.8
2023-05-09T11:02:19.039Z,16.7
2023-05-09T11:03:02.246Z,16.6
2023-05-09T11:04:01.138Z,16.7
2023-05-09T11:05:01.161Z,16.7
2023-05-09T11:06:02.501Z,16.8
2023-05-09T11:07:01.256Z,16.8
2023-05-09T11:08:02.031Z,16.8
2023-05-09T11:09:01.931Z,16.8
2023-05-09T11:10:02.465Z,16.7
2023-05-09T11:11:00.610Z,16.7
2023-05-09T11:12:00.208Z,16.7
2023-05-09T11:12:59.884Z,16.7
2023-05-09T11:13:59.514Z,16.8
2023-05-09T11:15:01.089Z,16.7
2023-05-09T11:16:00.839Z,16.7
2023-05-09T11:17:01.072Z,16.8
2023-05-09T11:18:01.112Z,16.8
2023-05-09T11:19:01.369Z,16.9
2023-05-09T11:20:01.437Z,16.9
2023-05-09T11:21:01.476Z,17
2023-05-09T11:22:02.342Z,17
2023-05-09T11:23:01.143Z,17
2023-05-09T11:24:01.129Z,17
2023-05-09T11:25:01.038Z,17
2023-05-09T11:26:01.026Z,17
2023-05-09T11:27:01.036Z,17
2023-05-09T11:28:01.436Z,17
2023-05-09T11:29:01.058Z,17
2023-05-09T11:30:01.054Z,17.1
2023-05-09T11:31:00.846Z,17.1
2023-05-09T11:32:00.550Z,17.1
2023-05-09T11:33:00.371Z,17.1
2023-05-09T11:34:00.084Z,17.1
2023-05-09T11:35:00.142Z,17.2
2023-05-09T11:35:59.884Z,17.3
2023-05-09T11:36:59.679Z,17.3
2023-05-09T11:38:01.499Z,17.3
2023-05-09T11:39:01.132Z,17.3
2023-05-09T11:40:01.112Z,17.3
2023-05-09T11:41:01.018Z,17.3
2023-05-09T11:42:01.035Z,17.3
2023-05-09T11:43:01.036Z,17.3
2023-05-09T11:44:01.073Z,17.3
2023-05-09T11:45:01.039Z,17.3
2023-05-09T11:46:01.080Z,17.3
2023-05-09T11:47:01.066Z,17.3
2023-05-09T11:48:01.591Z,17.3
2023-05-09T11:49:01.036Z,17.3
2023-05-09T11:50:01.043Z,17.3
2023-05-09T11:51:01.103Z,17.3
2023-05-09T11:52:01.124Z,17.3
2023-05-09T11:53:01.099Z,17.3
2023-05-09T11:54:00.482Z,17.3
2023-05-09T11:55:00.113Z,17.3
2023-05-09T11:55:59.797Z,17.3
2023-05-09T11:57:01.576Z,17.3
2023-05-09T11:58:01.144Z,17.3
2023-05-09T11:59:01.170Z,17.3
2023-05-09T12:00:01.433Z,17.3
2023-05-09T12:01:01.916Z,17.3
2023-05-09T12:02:01.191Z,17.4
2023-05-09T12:03:01.149Z,17.5
2023-05-09T12:04:01.121Z,17.5
2023-05-09T12:05:01.073Z,17.5
2023-05-09T12:06:01.094Z,17.5
2023-05-09T12:07:01.086Z,17.5
2023-05-09T12:08:01.468Z,17.5
2023-05-09T12:09:01.051Z,17.6
2023-05-09T12:10:01.015Z,17.6
2023-05-09T12:11:01.123Z,17.6
2023-05-09T12:12:01.138Z,17.6
2023-05-09T12:13:01.295Z,17.6
2023-05-09T12:14:01.026Z,17.6
2023-05-09T12:15:01.038Z,17.6
2023-05-09T12:16:00.796Z,17.6
2023-05-09T12:17:01.364Z,17.6
2023-05-09T12:18:02.309Z,17.6
2023-05-09T12:19:01.086Z,17.6
2023-05-09T12:20:01.077Z,17.6
2023-05-09T12:21:01.095Z,17.6
2023-05-09T12:22:01.073Z,17.6
2023-05-09T12:23:01.149Z,17.5
2023-05-09T12:24:01.284Z,17.5
2023-05-09T12:25:01.412Z,17.6
2023-05-09T12:26:01.206Z,17.6
2023-05-09T12:27:01.136Z,17.6
2023-05-09T12:28:02.818Z,17.6
2023-05-09T12:29:01.115Z,17.6
2023-05-09T12:30:01.036Z,17.6
2023-05-09T12:31:01.206Z,17.6
2023-05-09T12:32:01.548Z,17.6
2023-05-09T12:33:04.735Z,17.6
2023-05-09T12:34:01.064Z,17.6
2023-05-09T12:35:01.111Z,17.6
2023-05-09T12:36:00.889Z,17.6
2023-05-09T12:37:01.457Z,17.6
2023-05-09T12:38:08.128Z,17.6
2023-05-09T12:39:02.108Z,17.6
2023-05-09T12:40:01.121Z,17.6
2023-05-09T12:41:03.509Z,17.6
2023-05-09T12:42:02.264Z,17.7
2023-05-09T12:43:10.186Z,17.7
2023-05-09T12:44:01.366Z,17.7
2023-05-09T12:45:01.517Z,17.8
2023-05-09T12:46:01.034Z,17.8
2023-05-09T12:47:01.088Z,17.8
2023-05-09T12:48:13.858Z,17.8
2023-05-09T12:49:02.490Z,17.8
2023-05-09T12:50:01.717Z,17.9
2023-05-09T12:51:01.104Z,17.9
2023-05-09T12:52:04.475Z,17.9
2023-05-09T12:53:15.946Z,17.8
2023-05-09T12:54:01.202Z,17.8
2023-05-09T12:55:01.084Z,17.8
2023-05-09T12:56:00.780Z,17.8
2023-05-09T12:57:01.133Z,17.8
2023-05-09T12:58:01.119Z,17.8
2023-05-09T12:59:01.134Z,17.8
2023-05-09T13:00:01.142Z,17.8
2023-05-09T13:01:01.132Z,17.7
2023-05-09T13:02:01.173Z,17.8
2023-05-09T13:03:01.239Z,17.8
2023-05-09T13:04:01.253Z,17.8
2023-05-09T13:05:01.266Z,17.8
2023-05-09T13:06:01.090Z,17.8
2023-05-09T13:07:01.111Z,17.9
2023-05-09T13:08:01.072Z,17.9
2023-05-09T13:09:01.097Z,17.9
2023-05-09T13:10:01.098Z,17.9
2023-05-09T13:11:14.935Z,18
2023-05-09T13:12:01.402Z,18
2023-05-09T13:13:01.511Z,18
2023-05-09T13:14:01.010Z,18
2023-05-09T13:15:01.055Z,18
2023-05-09T13:16:01.205Z,18
2023-05-09T13:17:01.273Z,18
2023-05-09T13:18:01.120Z,18
2023-05-09T13:19:01.796Z,18
2023-05-09T13:20:01.869Z,18
2023-05-09T13:21:02.065Z,18
2023-05-09T13:22:01.168Z,18
2023-05-09T13:23:01.199Z,18
2023-05-09T13:24:01.096Z,18.1
2023-05-09T13:25:01.113Z,18.1
2023-05-09T13:26:01.083Z,18.1
2023-05-09T13:27:01.086Z,18.1
2023-05-09T13:28:01.091Z,18.1
2023-05-09T13:29:01.198Z,18
2023-05-09T13:30:01.540Z,18.1
2023-05-09T13:31:02.219Z,18.1
2023-05-09T13:32:01.416Z,18.1
2023-05-09T13:33:12.733Z,18.1
2023-05-09T13:34:01.527Z,18.1
2023-05-09T13:35:02.114Z,18.1